Time;durP1;ratioP1;P1;durP2;ratioP2;P2;SDS_P1;SDS_P2;PMS_P1;PMS_P2;Temp;Humidity;BMP_temperature;BMP_pressure;BME280_temperature;BME280_humidity;BME280_pressure;Samples;Min_cycle;Max_cycle;Signal;HPM_P1;HPM_P2
2022/09/14 00:02:11;;;;;;;3.63;1.83;;;;;;;;;;5068885;28;20218;-46
2022/09/14 00:04:37;;;;;;;5.50;2.10;;;;;;;;;;5070835;28;20670;-46
2022/09/14 00:07:03;;;;;;;5.07;2.23;;;;;;;;;;5070667;28;20212;-47
2022/09/14 00:09:29;;;;;;;6.03;2.67;;;;;;;;;;5070494;28;20210;-46
2022/09/14 00:11:55;;;;;;;7.13;2.40;;;;;;;;;;5070605;28;20286;-46
2022/09/14 00:14:23;;;;;;;4.40;2.27;;;;;;;;;;5070545;28;20286;-46
2022/09/14 00:16:50;;;;;;;4.00;2.20;;;;;;;;;;5070739;28;20226;-46
2022/09/14 00:19:17;;;;;;;4.07;2.40;;;;;;;;;;5070436;28;20757;-47
2022/09/14 00:21:43;;;;;;;3.63;2.23;;;;;;;;;;5070623;28;20192;-47
2022/09/14 00:24:10;;;;;;;5.83;2.43;;;;;;;;;;5070548;28;20196;-48
2022/09/14 00:26:36;;;;;;;5.63;2.00;;;;;;;;;;5070809;28;20268;-47
2022/09/14 00:29:03;;;;;;;5.63;2.10;;;;;;;;;;5069006;28;20196;-47
2022/09/14 00:31:31;;;;;;;3.07;2.10;;;;;;;;;;5070417;28;20429;-47
2022/09/14 00:33:57;;;;;;;6.77;2.23;;;;;;;;;;5070316;28;20199;-48
2022/09/14 00:36:24;;;;;;;8.17;2.50;;;;;;;;;;5070375;28;20210;-48
2022/09/14 00:38:50;;;;;;;7.70;2.73;;;;;;;;;;5074087;28;20232;-47
2022/09/14 00:41:18;;;;;;;5.33;2.33;;;;;;;;;;5073010;28;20618;-47
2022/09/14 00:43:51;;;;;;;3.67;2.30;;;;;;;;;;5074918;28;20192;-48
2022/09/14 00:46:17;;;;;;;6.23;2.20;;;;;;;;;;5074550;28;20274;-48
2022/09/14 00:48:44;;;;;;;5.73;2.53;;;;;;;;;;5074598;28;20666;-48
2022/09/14 00:51:10;;;;;;;5.63;2.50;;;;;;;;;;5074237;28;20572;-47
2022/09/14 00:53:36;;;;;;;4.83;2.20;;;;;;;;;;5074035;28;20210;-47
2022/09/14 00:56:02;;;;;;;6.43;2.23;;;;;;;;;;5074571;28;20308;-48
2022/09/14 00:58:28;;;;;;;7.57;2.20;;;;;;;;;;5074330;28;20241;-48
2022/09/14 01:00:54;;;;;;;4.97;2.43;;;;;;;;;;5074052;28;20239;-48
2022/09/14 01:03:21;;;;;;;5.73;2.30;;;;;;;;;;5072138;28;20768;-47
2022/09/14 01:05:55;;;;;;;6.13;2.80;;;;;;;;;;5072984;28;20200;-48
2022/09/14 01:08:39;;;;;;;4.33;2.67;;;;;;;;;;5072568;28;20566;-47
2022/09/14 01:11:09;;;;;;;7.73;2.77;;;;;;;;;;5074341;28;20322;-48
2022/09/14 01:13:40;;;;;;;5.40;2.80;;;;;;;;;;5073901;28;20288;-47
2022/09/14 01:16:10;;;;;;;4.23;2.40;;;;;;;;;;5073812;28;20206;-48
2022/09/14 01:18:37;;;;;;;4.77;2.07;;;;;;;;;;5073940;28;20227;-48
2022/09/14 01:21:08;;;;;;;3.77;2.33;;;;;;;;;;5073895;28;20214;-47
2022/09/14 01:23:37;;;;;;;6.60;2.80;;;;;;;;;;5073670;28;20210;-47
2022/09/14 01:26:19;;;;;;;5.67;2.87;;;;;;;;;;5073810;28;20592;-47
2022/09/14 01:28:51;;;;;;;7.23;2.30;;;;;;;;;;5073509;28;20192;-48
2022/09/14 01:31:19;;;;;;;6.63;2.70;;;;;;;;;;5073677;28;20286;-48
2022/09/14 01:33:47;;;;;;;5.47;2.80;;;;;;;;;;5073397;28;20243;-47
2022/09/14 01:36:15;;;;;;;4.80;2.50;;;;;;;;;;5072129;28;20650;-47
2022/09/14 01:38:42;;;;;;;5.77;2.70;;;;;;;;;;5073466;28;20254;-47
2022/09/14 01:41:10;;;;;;;5.80;2.60;;;;;;;;;;5072035;28;20611;-48
2022/09/14 01:43:39;;;;;;;3.70;2.50;;;;;;;;;;5073859;28;20195;-48
2022/09/14 01:46:09;;;;;;;4.67;2.67;;;;;;;;;;5073248;28;20192;-48
2022/09/14 01:48:37;;;;;;;4.33;2.43;;;;;;;;;;5072286;28;20295;-47
2022/09/14 01:51:06;;;;;;;7.50;2.73;;;;;;;;;;5072992;28;20302;-48
2022/09/14 01:53:36;;;;;;;4.53;2.60;;;;;;;;;;5073365;28;20203;-47
2022/09/14 01:56:05;;;;;;;5.70;2.40;;;;;;;;;;5073411;28;20222;-47
2022/09/14 01:58:34;;;;;;;3.47;2.00;;;;;;;;;;5072996;28;20227;-48
2022/09/14 02:01:01;;;;;;;5.00;2.80;;;;;;;;;;5070996;28;20334;-48
2022/09/14 02:03:31;;;;;;;4.10;2.50;;;;;;;;;;5073173;28;20217;-48
2022/09/14 02:05:59;;;;;;;3.20;2.30;;;;;;;;;;5072908;28;20682;-48
2022/09/14 02:08:27;;;;;;;4.77;2.20;;;;;;;;;;5071356;28;20220;-47
2022/09/14 02:10:53;;;;;;;6.67;2.30;;;;;;;;;;5073363;28;20211;-47
2022/09/14 02:13:19;;;;;;;5.07;2.53;;;;;;;;;;5073021;28;20249;-48
2022/09/14 02:15:45;;;;;;;3.17;2.30;;;;;;;;;;5072793;28;20250;-47
2022/09/14 02:18:11;;;;;;;4.83;2.20;;;;;;;;;;5072718;28;20224;-48
2022/09/14 02:20:40;;;;;;;5.97;2.27;;;;;;;;;;5072860;28;20539;-48
2022/09/14 02:23:06;;;;;;;4.30;2.03;;;;;;;;;;5072838;28;20640;-48
2022/09/14 02:25:35;;;;;;;3.80;2.00;;;;;;;;;;5072848;28;20206;-47
2022/09/14 02:28:01;;;;;;;4.50;2.20;;;;;;;;;;5072305;28;20242;-47
2022/09/14 02:30:27;;;;;;;4.33;2.30;;;;;;;;;;5072806;28;20298;-48
2022/09/14 02:32:57;;;;;;;3.43;2.70;;;;;;;;;;5072262;28;20220;-47
2022/09/14 02:35:27;;;;;;;7.33;2.60;;;;;;;;;;5072503;28;20199;-48
2022/09/14 02:38:00;;;;;;;3.53;2.50;;;;;;;;;;5072056;28;20742;-48
2022/09/14 02:40:30;;;;;;;5.40;3.03;;;;;;;;;;5072239;28;20207;-47
2022/09/14 02:43:00;;;;;;;6.40;2.63;;;;;;;;;;5072490;28;20215;-48
2022/09/14 02:45:28;;;;;;;3.20;2.50;;;;;;;;;;5071510;28;20631;-47
2022/09/14 02:47:56;;;;;;;5.23;2.93;;;;;;;;;;5072419;28;20257;-47
2022/09/14 02:50:25;;;;;;;6.00;2.77;;;;;;;;;;5071428;28;20231;-47
2022/09/14 02:52:55;;;;;;;6.67;3.10;;;;;;;;;;5072368;28;20199;-48
2022/09/14 02:55:25;;;;;;;3.87;2.70;;;;;;;;;;5071937;28;20228;-47
2022/09/14 02:58:01;;;;;;;5.93;3.53;;;;;;;;;;5072052;28;20236;-47
2022/09/14 03:00:27;;;;;;;4.37;2.90;;;;;;;;;;5071762;28;20242;-48
2022/09/14 03:02:53;;;;;;;5.17;3.00;;;;;;;;;;5071865;28;20290;-48
2022/09/14 03:05:19;;;;;;;4.37;3.10;;;;;;;;;;5072091;28;20282;-47
2022/09/14 03:07:45;;;;;;;5.10;2.87;;;;;;;;;;5071897;28;20560;-47
2022/09/14 03:10:11;;;;;;;4.40;2.73;;;;;;;;;;5071953;28;20257;-47
2022/09/14 03:12:38;;;;;;;6.03;3.57;;;;;;;;;;5072084;28;20733;-47
2022/09/14 03:15:05;;;;;;;4.10;3.20;;;;;;;;;;5071620;28;20211;-47
2022/09/14 03:17:31;;;;;;;3.90;3.03;;;;;;;;;;5071701;28;20823;-47
2022/09/14 03:19:57;;;;;;;4.00;2.90;;;;;;;;;;5071701;28;20236;-47
2022/09/14 03:22:23;;;;;;;5.37;2.70;;;;;;;;;;5071539;28;20610;-47
2022/09/14 03:24:49;;;;;;;5.40;2.60;;;;;;;;;;5071694;28;20234;-48
2022/09/14 03:27:15;;;;;;;3.17;2.80;;;;;;;;;;5071529;28;20302;-48
2022/09/14 03:29:42;;;;;;;4.03;2.73;;;;;;;;;;5071537;28;20719;-48
2022/09/14 03:32:09;;;;;;;3.77;2.80;;;;;;;;;;5071206;28;20211;-48
2022/09/14 03:34:35;;;;;;;5.10;3.40;;;;;;;;;;5071403;28;20218;-48
2022/09/14 03:37:01;;;;;;;5.27;2.90;;;;;;;;;;5071215;28;20196;-48
2022/09/14 03:39:27;;;;;;;3.77;2.90;;;;;;;;;;5071179;28;20199;-48
2022/09/14 03:41:53;;;;;;;4.40;2.97;;;;;;;;;;5071432;28;21383;-48
2022/09/14 03:44:19;;;;;;;4.60;2.77;;;;;;;;;;5071303;28;20200;-47
2022/09/14 03:46:47;;;;;;;3.60;2.90;;;;;;;;;;5070899;28;20611;-47
2022/09/14 03:49:13;;;;;;;4.10;3.20;;;;;;;;;;5071139;28;20435;-48
2022/09/14 03:51:39;;;;;;;4.20;3.20;;;;;;;;;;5071222;28;20198;-48
2022/09/14 03:54:05;;;;;;;3.90;2.87;;;;;;;;;;5071051;28;20282;-52
2022/09/14 03:56:31;;;;;;;5.00;3.23;;;;;;;;;;5071117;28;20849;-47
2022/09/14 03:58:57;;;;;;;5.63;3.67;;;;;;;;;;5071071;28;20241;-47
2022/09/14 04:01:23;;;;;;;6.70;4.00;;;;;;;;;;5070739;28;20231;-47
2022/09/14 04:03:50;;;;;;;8.10;3.80;;;;;;;;;;5070738;28;20200;-48
2022/09/14 04:06:17;;;;;;;4.37;3.50;;;;;;;;;;5070990;28;20286;-47
2022/09/14 04:08:44;;;;;;;4.47;3.83;;;;;;;;;;5071174;28;20220;-48
2022/09/14 04:11:12;;;;;;;4.10;3.70;;;;;;;;;;5070566;28;20203;-48
2022/09/14 04:13:38;;;;;;;5.33;4.20;;;;;;;;;;5070528;28;20290;-47
2022/09/14 04:16:04;;;;;;;5.17;3.63;;;;;;;;;;5071023;28;20207;-47
2022/09/14 04:18:30;;;;;;;6.43;3.70;;;;;;;;;;5070362;28;20288;-47
2022/09/14 04:20:58;;;;;;;5.07;3.27;;;;;;;;;;5070931;28;20194;-47
2022/09/14 04:23:24;;;;;;;4.03;3.53;;;;;;;;;;5068919;28;20207;-46
2022/09/14 04:25:51;;;;;;;5.13;3.60;;;;;;;;;;5070968;28;20211;-47
2022/09/14 04:28:17;;;;;;;6.93;3.67;;;;;;;;;;5070589;28;20711;-47
2022/09/14 04:30:43;;;;;;;3.80;3.30;;;;;;;;;;5070587;28;20289;-47
2022/09/14 04:33:09;;;;;;;7.07;3.70;;;;;;;;;;5068254;28;20196;-47
2022/09/14 04:35:36;;;;;;;6.13;3.30;;;;;;;;;;5070721;28;20632;-46
2022/09/14 04:38:04;;;;;;;5.57;4.53;;;;;;;;;;5070523;28;20257;-47
2022/09/14 04:40:30;;;;;;;7.00;3.90;;;;;;;;;;5070323;28;20207;-47
2022/09/14 04:42:56;;;;;;;5.80;3.90;;;;;;;;;;5070449;28;20665;-47
2022/09/14 04:45:22;;;;;;;6.23;4.03;;;;;;;;;;5070346;28;20195;-47
2022/09/14 04:47:49;;;;;;;6.23;5.03;;;;;;;;;;5070416;28;20194;-47
2022/09/14 04:50:15;;;;;;;7.43;4.40;;;;;;;;;;5070400;28;20199;-47
2022/09/14 04:52:41;;;;;;;6.80;4.23;;;;;;;;;;5070459;28;20597;-46
2022/09/14 04:55:09;;;;;;;5.03;3.47;;;;;;;;;;5069464;28;20225;-46
2022/09/14 04:57:35;;;;;;;4.87;3.30;;;;;;;;;;5068841;28;20253;-46
2022/09/14 05:00:01;;;;;;;4.87;3.27;;;;;;;;;;5070526;28;20231;-47
2022/09/14 05:02:29;;;;;;;4.93;3.23;;;;;;;;;;5070258;28;20603;-47
2022/09/14 05:04:57;;;;;;;5.10;3.93;;;;;;;;;;5070199;28;20203;-47
2022/09/14 05:07:23;;;;;;;8.33;4.07;;;;;;;;;;5070055;28;20302;-47
2022/09/14 05:09:49;;;;;;;6.57;3.70;;;;;;;;;;5070161;28;20200;-47
2022/09/14 05:12:17;;;;;;;3.63;3.33;;;;;;;;;;5069619;28;20208;-46
2022/09/14 05:14:43;;;;;;;4.33;3.33;;;;;;;;;;5069720;28;20568;-47
2022/09/14 05:17:09;;;;;;;4.53;3.13;;;;;;;;;;5069787;28;20666;-47
2022/09/14 05:19:35;;;;;;;8.60;4.73;;;;;;;;;;5069601;28;20256;-47
2022/09/14 05:22:01;;;;;;;7.50;4.00;;;;;;;;;;5069727;28;20818;-47
2022/09/14 05:24:27;;;;;;;5.50;4.00;;;;;;;;;;5072555;28;20242;-47
2022/09/14 05:26:53;;;;;;;8.30;4.30;;;;;;;;;;5073678;28;20206;-47
2022/09/14 05:29:21;;;;;;;5.37;3.73;;;;;;;;;;5073883;28;20219;-47
2022/09/14 05:31:47;;;;;;;9.20;4.53;;;;;;;;;;5073763;28;20199;-47
2022/09/14 05:34:13;;;;;;;9.03;4.80;;;;;;;;;;5071970;28;20256;-47
2022/09/14 05:36:39;;;;;;;5.20;4.30;;;;;;;;;;5073445;28;20200;-47
2022/09/14 05:39:06;;;;;;;7.13;5.13;;;;;;;;;;5073200;28;20245;-47
2022/09/14 05:41:32;;;;;;;6.30;5.00;;;;;;;;;;5073601;28;20670;-48
2022/09/14 05:43:58;;;;;;;5.73;4.90;;;;;;;;;;5073753;28;20286;-47
2022/09/14 05:46:26;;;;;;;4.97;4.37;;;;;;;;;;5071640;28;20534;-47
2022/09/14 05:48:52;;;;;;;8.37;4.57;;;;;;;;;;5073199;28;20203;-48
2022/09/14 05:51:19;;;;;;;8.50;5.80;;;;;;;;;;5073245;28;20195;-47
2022/09/14 05:53:47;;;;;;;5.27;4.80;;;;;;;;;;5071932;28;20291;-48
2022/09/14 05:56:13;;;;;;;5.53;4.80;;;;;;;;;;5073346;28;20282;-47
2022/09/14 05:58:40;;;;;;;7.43;5.47;;;;;;;;;;5073214;28;20284;-47
2022/09/14 06:01:07;;;;;;;6.20;4.60;;;;;;;;;;5073442;28;20236;-47
2022/09/14 06:03:35;;;;;;;7.03;5.20;;;;;;;;;;5073074;28;20199;-47
2022/09/14 06:06:01;;;;;;;6.10;5.07;;;;;;;;;;5073285;28;20212;-47
2022/09/14 06:08:27;;;;;;;6.27;5.67;;;;;;;;;;5073037;28;20216;-47
2022/09/14 06:10:53;;;;;;;6.53;5.90;;;;;;;;;;5072963;28;20203;-48
2022/09/14 06:13:19;;;;;;;7.23;5.90;;;;;;;;;;5072796;28;20223;-47
2022/09/14 06:15:45;;;;;;;6.60;5.43;;;;;;;;;;5071159;28;20658;-48
2022/09/14 06:18:11;;;;;;;5.80;5.20;;;;;;;;;;5071072;28;20310;-48
2022/09/14 06:20:38;;;;;;;5.17;4.67;;;;;;;;;;5072485;28;20199;-48
2022/09/14 06:23:04;;;;;;;9.77;6.13;;;;;;;;;;5072541;28;20203;-47
2022/09/14 06:25:30;;;;;;;10.07;5.57;;;;;;;;;;5071196;28;20203;-47
2022/09/14 06:27:56;;;;;;;9.07;6.43;;;;;;;;;;5071307;28;20191;-47
2022/09/14 06:30:22;;;;;;;7.10;5.80;;;;;;;;;;5072935;28;20249;-47
2022/09/14 06:32:48;;;;;;;9.53;5.63;;;;;;;;;;5072484;28;20250;-47
2022/09/14 06:35:14;;;;;;;7.47;6.10;;;;;;;;;;5071771;28;20204;-47
2022/09/14 06:37:41;;;;;;;9.87;6.53;;;;;;;;;;5071854;28;20227;-48
2022/09/14 06:40:07;;;;;;;9.10;6.30;;;;;;;;;;5071004;28;20199;-47
2022/09/14 06:42:33;;;;;;;6.93;6.20;;;;;;;;;;5070869;28;20629;-47
2022/09/14 06:44:59;;;;;;;11.37;7.23;;;;;;;;;;5072306;28;20231;-47
2022/09/14 06:47:30;;;;;;;6.97;6.27;;;;;;;;;;5072022;28;20207;-47
2022/09/14 06:49:56;;;;;;;7.93;5.83;;;;;;;;;;5070531;28;20257;-47
2022/09/14 06:52:22;;;;;;;8.53;5.70;;;;;;;;;;5072357;28;20202;-47
2022/09/14 06:54:50;;;;;;;8.53;6.10;;;;;;;;;;5072080;28;20564;-48
2022/09/14 06:57:15;;;;;;;7.17;6.27;;;;;;;;;;5071938;28;20207;-47
2022/09/14 06:59:41;;;;;;;5.73;5.13;;;;;;;;;;5071921;28;20227;-48
2022/09/14 07:02:08;;;;;;;7.77;5.33;;;;;;;;;;5071729;28;20662;-48
2022/09/14 07:04:35;;;;;;;8.53;6.43;;;;;;;;;;5070508;28;20261;-48
2022/09/14 07:07:01;;;;;;;9.53;5.70;;;;;;;;;;5071733;28;20227;-48
2022/09/14 07:09:27;;;;;;;7.87;5.97;;;;;;;;;;5069781;28;20197;-48
2022/09/14 07:11:55;;;;;;;9.10;5.57;;;;;;;;;;5070996;28;20252;-48
2022/09/14 07:14:21;;;;;;;6.70;4.87;;;;;;;;;;5070086;28;20199;-48
2022/09/14 07:16:47;;;;;;;5.80;4.77;;;;;;;;;;5069853;28;20192;-48
2022/09/14 07:19:14;;;;;;;6.70;5.67;;;;;;;;;;5070982;28;20223;-47
2022/09/14 07:21:40;;;;;;;10.10;6.20;;;;;;;;;;5071304;28;20192;-48
2022/09/14 07:24:06;;;;;;;9.43;6.37;;;;;;;;;;5071045;28;20199;-48
2022/09/14 07:26:34;;;;;;;8.80;6.03;;;;;;;;;;5071153;28;20546;-48
2022/09/14 07:29:03;;;;;;;9.20;6.30;;;;;;;;;;5071276;28;20252;-48
2022/09/14 07:31:30;;;;;;;11.03;6.40;;;;;;;;;;5071170;28;20282;-48
2022/09/14 07:34:00;;;;;;;8.43;5.40;;;;;;;;;;5070874;28;20199;-48
2022/09/14 07:36:27;;;;;;;8.63;6.20;;;;;;;;;;5070889;28;20219;-47
2022/09/14 07:38:53;;;;;;;8.73;5.47;;;;;;;;;;5071202;28;20285;-48
2022/09/14 07:41:19;;;;;;;9.87;5.70;;;;;;;;;;5070793;28;20199;-48
2022/09/14 07:43:48;;;;;;;8.60;5.70;;;;;;;;;;5070687;28;20203;-47
2022/09/14 07:46:15;;;;;;;7.03;4.77;;;;;;;;;;5068834;28;20203;-47
2022/09/14 07:48:41;;;;;;;7.03;4.83;;;;;;;;;;5070759;28;20196;-47
2022/09/14 07:51:09;;;;;;;8.80;5.40;;;;;;;;;;5070457;28;20568;-47
2022/09/14 07:53:35;;;;;;;6.63;5.63;;;;;;;;;;5070615;28;20207;-50
2022/09/14 07:56:01;;;;;;;6.20;5.17;;;;;;;;;;5070712;28;20223;-48
2022/09/14 07:58:28;;;;;;;5.67;5.10;;;;;;;;;;5070441;28;20207;-49
2022/09/14 08:00:57;;;;;;;11.87;5.37;;;;;;;;;;5070401;28;20330;-48
2022/09/14 08:03:24;;;;;;;9.30;5.93;;;;;;;;;;5070729;28;20249;-48
2022/09/14 08:05:57;;;;;;;8.83;5.60;;;;;;;;;;5070076;28;20398;-48
2022/09/14 08:08:23;;;;;;;8.90;6.03;;;;;;;;;;5070400;28;20929;-49
2022/09/14 08:10:49;;;;;;;10.20;5.60;;;;;;;;;;5070677;28;20206;-47
2022/09/14 08:13:15;;;;;;;5.60;4.00;;;;;;;;;;5069794;28;20239;-47
2022/09/14 08:15:41;;;;;;;6.63;4.17;;;;;;;;;;5070551;28;20274;-48
2022/09/14 08:18:07;;;;;;;5.97;4.60;;;;;;;;;;5066904;28;20314;-47
2022/09/14 08:20:34;;;;;;;5.70;4.63;;;;;;;;;;5067489;28;20253;-48
2022/09/14 08:23:00;;;;;;;6.87;4.00;;;;;;;;;;5070091;28;20211;-49
2022/09/14 08:25:26;;;;;;;9.87;4.87;;;;;;;;;;5070144;28;20206;-49
2022/09/14 08:27:53;;;;;;;5.53;3.00;;;;;;;;;;5070542;28;20196;-49
2022/09/14 08:30:19;;;;;;;5.20;3.30;;;;;;;;;;5070878;28;20226;-49
2022/09/14 08:32:45;;;;;;;6.70;3.63;;;;;;;;;;5070669;28;20227;-48
2022/09/14 08:35:11;;;;;;;7.60;3.70;;;;;;;;;;5070650;28;20214;-48
2022/09/14 08:37:38;;;;;;;6.40;2.97;;;;;;;;;;5070103;28;20231;-48
2022/09/14 08:40:04;;;;;;;6.90;3.40;;;;;;;;;;5070509;28;20222;-48
2022/09/14 08:42:31;;;;;;;6.13;3.30;;;;;;;;;;5070177;28;20204;-48
2022/09/14 08:44:58;;;;;;;6.10;3.33;;;;;;;;;;5069867;28;20206;-48
2022/09/14 08:47:26;;;;;;;6.97;3.93;;;;;;;;;;5069924;28;20246;-48
2022/09/14 08:49:54;;;;;;;7.67;3.10;;;;;;;;;;5070558;28;20217;-48
2022/09/14 08:52:24;;;;;;;4.13;2.83;;;;;;;;;;5067737;28;20251;-47
2022/09/14 08:54:53;;;;;;;7.47;3.10;;;;;;;;;;5070317;28;20200;-48
2022/09/14 08:57:22;;;;;;;11.20;3.63;;;;;;;;;;5069718;28;20200;-48
2022/09/14 08:59:51;;;;;;;6.40;3.23;;;;;;;;;;5073454;28;20304;-47
2022/09/14 09:02:35;;;;;;;7.80;3.17;;;;;;;;;;5074192;28;20267;-48
2022/09/14 09:05:06;;;;;;;4.90;2.70;;;;;;;;;;5073675;28;20552;-48
2022/09/14 09:07:35;;;;;;;7.57;3.20;;;;;;;;;;5073867;28;20715;-49
2022/09/14 09:10:04;;;;;;;7.53;3.80;;;;;;;;;;5074140;28;20199;-48
2022/09/14 09:12:34;;;;;;;7.30;3.17;;;;;;;;;;5074107;28;20754;-48
2022/09/14 09:15:02;;;;;;;7.47;3.03;;;;;;;;;;5073936;28;20199;-48
2022/09/14 09:17:30;;;;;;;10.70;3.50;;;;;;;;;;5073680;28;20199;-48
2022/09/14 09:20:00;;;;;;;5.67;2.77;;;;;;;;;;5072915;28;20650;-48
2022/09/14 09:22:29;;;;;;;5.03;2.40;;;;;;;;;;5073535;28;20641;-48
2022/09/14 09:24:57;;;;;;;8.03;2.30;;;;;;;;;;5074089;28;20223;-49
2022/09/14 09:27:28;;;;;;;6.53;2.60;;;;;;;;;;5073867;28;20201;-49
2022/09/14 09:29:54;;;;;;;5.63;2.70;;;;;;;;;;5063122;28;20205;-47
2022/09/14 09:32:22;;;;;;;6.73;2.93;;;;;;;;;;5070408;28;20198;-47
2022/09/14 09:34:49;;;;;;;7.60;2.87;;;;;;;;;;5072025;28;20610;-48
2022/09/14 09:37:15;;;;;;;4.17;2.40;;;;;;;;;;5073090;28;20233;-46
2022/09/14 09:39:42;;;;;;;4.40;2.73;;;;;;;;;;5073218;28;20237;-46
2022/09/14 09:42:13;;;;;;;4.77;2.80;;;;;;;;;;5073991;28;20289;-46
2022/09/14 09:44:53;;;;;;;6.23;2.80;;;;;;;;;;5072905;28;20248;-46
2022/09/14 09:47:24;;;;;;;9.07;3.00;;;;;;;;;;5073248;28;20206;-46
2022/09/14 09:49:56;;;;;;;7.73;2.60;;;;;;;;;;5073535;28;20193;-47
2022/09/14 09:52:23;;;;;;;6.03;2.90;;;;;;;;;;5072796;28;20204;-46
2022/09/14 09:54:50;;;;;;;8.73;3.00;;;;;;;;;;5073575;28;20206;-46
2022/09/14 09:57:20;;;;;;;7.80;2.40;;;;;;;;;;5071432;28;20202;-46
2022/09/14 09:59:47;;;;;;;7.83;2.40;;;;;;;;;;5072429;28;20221;-47
2022/09/14 10:02:20;;;;;;;5.40;2.10;;;;;;;;;;5073155;28;20216;-47
2022/09/14 10:04:56;;;;;;;5.23;2.27;;;;;;;;;;5073308;28;20209;-47
2022/09/14 10:07:22;;;;;;;4.37;1.80;;;;;;;;;;5073139;28;20239;-47
2022/09/14 10:09:56;;;;;;;6.57;1.97;;;;;;;;;;5071867;28;20197;-48
2022/09/14 10:12:22;;;;;;;6.33;2.17;;;;;;;;;;5071027;28;20197;-48
2022/09/14 10:14:48;;;;;;;6.50;2.23;;;;;;;;;;5073173;28;20289;-46
2022/09/14 10:17:16;;;;;;;6.17;2.17;;;;;;;;;;5071394;28;20193;-46
2022/09/14 10:19:48;;;;;;;3.53;1.90;;;;;;;;;;5073182;28;20224;-47
2022/09/14 10:22:18;;;;;;;5.27;2.00;;;;;;;;;;5072396;28;20210;-46
2022/09/14 10:24:55;;;;;;;6.03;2.17;;;;;;;;;;5072660;28;20196;-46
2022/09/14 10:27:30;;;;;;;6.30;2.00;;;;;;;;;;5072522;28;20205;-47
2022/09/14 10:29:57;;;;;;;6.20;2.00;;;;;;;;;;5073124;28;20662;-45
2022/09/14 10:32:24;;;;;;;3.13;1.80;;;;;;;;;;5073112;28;20202;-46
2022/09/14 10:34:51;;;;;;;4.20;1.63;;;;;;;;;;5072918;28;20202;-44
2022/09/14 10:37:24;;;;;;;3.70;1.80;;;;;;;;;;5072924;28;20251;-46
2022/09/14 10:39:56;;;;;;;5.40;1.70;;;;;;;;;;5072614;28;20234;-46
2022/09/14 10:42:27;;;;;;;5.87;1.77;;;;;;;;;;5072626;28;20202;-47
2022/09/14 10:44:58;;;;;;;3.70;1.80;;;;;;;;;;5072664;28;20204;-46
2022/09/14 10:47:39;;;;;;;5.97;1.90;;;;;;;;;;5072330;28;20726;-47
2022/09/14 10:50:19;;;;;;;5.80;1.67;;;;;;;;;;5070215;28;20675;-47
2022/09/14 10:52:50;;;;;;;5.20;1.50;;;;;;;;;;5072398;28;20569;-47
2022/09/14 10:55:30;;;;;;;5.43;1.80;;;;;;;;;;5072522;28;20198;-47
2022/09/14 10:58:00;;;;;;;7.13;1.63;;;;;;;;;;5072444;28;20276;-47
2022/09/14 11:00:30;;;;;;;3.93;1.63;;;;;;;;;;5072043;28;20266;-47
2022/09/14 11:03:08;;;;;;;3.83;1.60;;;;;;;;;;5072562;28;20195;-47
2022/09/14 11:05:37;;;;;;;5.13;1.83;;;;;;;;;;5072367;28;20197;-47
2022/09/14 11:08:09;;;;;;;7.17;1.60;;;;;;;;;;5071919;28;20229;-47
2022/09/14 11:10:40;;;;;;;4.40;1.40;;;;;;;;;;5072097;28;20193;-47
2022/09/14 11:13:15;;;;;;;4.67;1.63;;;;;;;;;;5072104;28;20197;-47
2022/09/14 11:15:45;;;;;;;4.47;1.57;;;;;;;;;;5071226;28;20205;-47
2022/09/14 11:18:17;;;;;;;2.90;1.40;;;;;;;;;;5069479;28;20228;-46
2022/09/14 11:20:50;;;;;;;4.27;1.53;;;;;;;;;;5071182;28;20206;-46
2022/09/14 11:23:25;;;;;;;5.50;1.57;;;;;;;;;;5070875;28;20209;-47
2022/09/14 11:25:53;;;;;;;5.07;1.50;;;;;;;;;;5071222;28;20193;-46
2022/09/14 11:28:21;;;;;;;5.20;1.90;;;;;;;;;;5071842;28;20197;-45
2022/09/14 11:30:52;;;;;;;2.03;1.00;;;;;;;;;;5071120;28;20202;-46
2022/09/14 11:33:21;;;;;;;4.17;1.50;;;;;;;;;;5070255;28;20302;-45
2022/09/14 11:35:51;;;;;;;4.73;1.60;;;;;;;;;;5071865;28;20202;-45
2022/09/14 11:38:19;;;;;;;3.60;1.27;;;;;;;;;;5071257;28;20253;-47
2022/09/14 11:40:46;;;;;;;7.03;1.40;;;;;;;;;;5071300;28;20623;-46
2022/09/14 11:43:14;;;;;;;4.37;1.60;;;;;;;;;;5071541;28;20206;-46
2022/09/14 11:45:43;;;;;;;3.47;1.47;;;;;;;;;;5071554;28;20211;-46
2022/09/14 11:48:12;;;;;;;4.47;1.67;;;;;;;;;;5071551;28;20200;-46
2022/09/14 11:50:42;;;;;;;3.63;1.60;;;;;;;;;;5071461;28;20202;-46
2022/09/14 11:53:11;;;;;;;5.37;1.73;;;;;;;;;;5070924;28;20192;-46
2022/09/14 11:55:40;;;;;;;5.73;1.67;;;;;;;;;;5071283;28;20282;-44
2022/09/14 11:58:07;;;;;;;5.63;1.50;;;;;;;;;;5069225;28;20585;-46
2022/09/14 12:00:44;;;;;;;7.17;1.80;;;;;;;;;;5070938;28;20242;-46
2022/09/14 12:03:15;;;;;;;2.70;1.30;;;;;;;;;;5070795;28;20187;-47
2022/09/14 12:05:43;;;;;;;3.30;1.23;;;;;;;;;;5070800;28;20316;-46
2022/09/14 12:08:37;;;;;;;3.53;1.60;;;;;;;;;;5071003;28;20219;-46
2022/09/14 12:11:05;;;;;;;3.93;1.80;;;;;;;;;;5071110;28;20206;-46
2022/09/14 12:13:31;;;;;;;6.60;1.70;;;;;;;;;;5070831;28;20202;-46
2022/09/14 12:16:00;;;;;;;3.80;1.60;;;;;;;;;;5065427;28;20206;-46
2022/09/14 12:18:27;;;;;;;2.40;1.30;;;;;;;;;;5068414;28;20582;-46
2022/09/14 12:21:03;;;;;;;2.93;1.47;;;;;;;;;;5070440;28;20211;-46
2022/09/14 12:23:31;;;;;;;3.83;1.80;;;;;;;;;;5070338;28;20689;-46
2022/09/14 12:26:02;;;;;;;2.97;1.30;;;;;;;;;;5070658;28;20249;-46
2022/09/14 12:28:39;;;;;;;3.83;1.37;;;;;;;;;;5070468;28;20204;-46
2022/09/14 12:31:11;;;;;;;4.63;1.70;;;;;;;;;;5070609;28;20203;-46
2022/09/14 12:34:04;;;;;;;3.67;1.43;;;;;;;;;;5068467;28;20218;-46
2022/09/14 12:36:56;;;;;;;5.07;1.53;;;;;;;;;;5070406;28;20199;-46
2022/09/14 12:39:23;;;;;;;4.37;1.80;;;;;;;;;;5070357;28;20368;-46
2022/09/14 12:42:10;;;;;;;6.40;1.87;;;;;;;;;;5070526;28;20199;-46
2022/09/14 12:44:39;;;;;;;4.07;1.60;;;;;;;;;;5070659;28;20240;-46
2022/09/14 12:47:34;;;;;;;5.30;1.63;;;;;;;;;;5047455;28;20237;-47
2022/09/14 12:50:04;;;;;;;3.33;1.60;;;;;;;;;;5015363;28;20207;-47
2022/09/14 12:52:35;;;;;;;4.27;1.50;;;;;;;;;;5049956;28;20210;-46
2022/09/14 12:55:08;;;;;;;2.67;1.20;;;;;;;;;;5050096;28;20283;-47
2022/09/14 12:57:38;;;;;;;3.00;1.50;;;;;;;;;;5050222;28;20646;-46
2022/09/14 13:00:11;;;;;;;3.77;1.63;;;;;;;;;;5050248;28;20289;-47
2022/09/14 13:02:47;;;;;;;2.90;1.50;;;;;;;;;;5050013;28;20566;-47
2022/09/14 13:05:15;;;;;;;5.53;1.60;;;;;;;;;;5049254;28;20211;-47
2022/09/14 13:07:41;;;;;;;4.10;1.70;;;;;;;;;;5050195;28;20320;-46
2022/09/14 13:10:16;;;;;;;3.00;1.47;;;;;;;;;;5049856;28;20245;-47
2022/09/14 13:12:43;;;;;;;3.27;1.70;;;;;;;;;;5050095;28;20207;-48
2022/09/14 13:15:16;;;;;;;3.67;1.77;;;;;;;;;;5050185;28;20209;-47
2022/09/14 13:17:55;;;;;;;3.07;1.50;;;;;;;;;;5050236;28;20239;-47
2022/09/14 13:20:21;;;;;;;3.33;1.40;;;;;;;;;;5050298;28;20206;-47
2022/09/14 13:22:47;;;;;;;3.50;1.50;;;;;;;;;;5049927;28;20195;-47
2022/09/14 13:25:25;;;;;;;4.67;1.50;;;;;;;;;;5050313;28;20546;-47
2022/09/14 13:27:51;;;;;;;4.40;1.73;;;;;;;;;;5049660;28;20207;-47
2022/09/14 13:30:20;;;;;;;2.20;1.40;;;;;;;;;;5049792;28;20646;-47
2022/09/14 13:32:48;;;;;;;2.43;1.40;;;;;;;;;;5048832;28;20275;-48
2022/09/14 13:35:16;;;;;;;2.87;1.60;;;;;;;;;;5049230;28;20670;-47
2022/09/14 13:37:42;;;;;;;3.80;1.60;;;;;;;;;;5048002;28;20215;-47
2022/09/14 13:40:08;;;;;;;3.03;1.40;;;;;;;;;;5049703;28;20660;-47
2022/09/14 13:42:34;;;;;;;2.63;1.40;;;;;;;;;;5047499;28;20643;-47
2022/09/14 13:45:00;;;;;;;3.97;1.40;;;;;;;;;;5051014;28;20289;-47
2022/09/14 13:47:28;;;;;;;1.93;1.43;;;;;;;;;;5050897;28;20225;-47
2022/09/14 13:49:54;;;;;;;4.00;1.63;;;;;;;;;;5053609;28;20203;-47
2022/09/14 13:52:28;;;;;;;5.40;1.80;;;;;;;;;;5053664;28;20199;-47
2022/09/14 13:54:55;;;;;;;4.43;1.80;;;;;;;;;;5053477;28;20199;-47
2022/09/14 13:57:22;;;;;;;4.17;1.60;;;;;;;;;;5053953;28;20220;-47
2022/09/14 14:00:07;;;;;;;3.33;1.60;;;;;;;;;;5053444;28;20705;-47
2022/09/14 14:02:35;;;;;;;3.10;1.30;;;;;;;;;;5053037;28;20196;-47
2022/09/14 14:05:02;;;;;;;6.20;1.70;;;;;;;;;;5053202;28;20675;-47
2022/09/14 14:07:30;;;;;;;3.60;1.57;;;;;;;;;;5053014;28;20731;-47
2022/09/14 14:09:58;;;;;;;4.00;1.40;;;;;;;;;;5053175;28;20200;-48
2022/09/14 14:12:25;;;;;;;4.70;1.80;;;;;;;;;;5052979;28;20615;-46
2022/09/14 14:14:55;;;;;;;4.17;1.50;;;;;;;;;;5052928;28;20655;-46
2022/09/14 14:17:25;;;;;;;3.67;1.80;;;;;;;;;;5052533;28;20196;-46
2022/09/14 14:19:54;;;;;;;2.00;1.40;;;;;;;;;;5052633;28;20277;-47
2022/09/14 14:22:20;;;;;;;3.10;1.40;;;;;;;;;;5053384;28;20195;-46
2022/09/14 14:24:47;;;;;;;4.00;1.83;;;;;;;;;;5053055;28;20184;-47
2022/09/14 14:27:27;;;;;;;4.03;1.60;;;;;;;;;;5052869;28;20282;-47
2022/09/14 14:29:53;;;;;;;1.63;1.23;;;;;;;;;;5053487;28;20215;-47
2022/09/14 14:32:19;;;;;;;1.27;1.17;;;;;;;;;;5052837;28;20214;-46
2022/09/14 14:34:45;;;;;;;2.77;1.30;;;;;;;;;;5052890;28;20215;-46
2022/09/14 14:37:13;;;;;;;4.10;1.57;;;;;;;;;;5052580;28;20207;-46
2022/09/14 14:39:39;;;;;;;2.60;1.50;;;;;;;;;;5052564;28;20235;-45
2022/09/14 14:42:06;;;;;;;4.23;1.43;;;;;;;;;;5052806;28;20198;-47
2022/09/14 14:44:32;;;;;;;3.20;1.50;;;;;;;;;;5052406;28;20199;-46
2022/09/14 14:46:58;;;;;;;2.63;1.20;;;;;;;;;;5052658;28;20229;-46
2022/09/14 14:49:24;;;;;;;3.20;1.20;;;;;;;;;;5052642;28;20236;-46
2022/09/14 14:51:50;;;;;;;3.40;1.50;;;;;;;;;;5052514;28;20609;-47